This is the latest recevied weather packets stored in our database for station/object KM5R. If no packets are shown the sender has not sent any weather packets the latest 1 day(s).
| Time | Temp. | Humidity | Pressure | Rain* | Wind** | Luminosity | Snow |
|---|---|---|---|---|---|---|---|
| 1778029611 | 27.22° C | 69% | 1006.9 hPa | 0 mm | 0.89 m/s, 133° | 5 W/m² | - |
| 1778029308 | 27.22° C | 68% | 1006.7 hPa | 0 mm | 1.34 m/s, 98° | 8 W/m² | - |
| 1778029005 | 27.22° C | 68% | 1006.7 hPa | 0 mm | 0.45 m/s, 99° | 12 W/m² | - |
| 1778028702 | 27.78° C | 67% | 1006.6 hPa | 0 mm | 1.34 m/s, 138° | 14 W/m² | - |
| 1778028398 | 27.78° C | 67% | 1006.9 hPa | 0 mm | 0 m/s | 15 W/m² | - |
| 1778028095 | 27.78° C | 66% | 1006.9 hPa | 0 mm | 0.89 m/s, 121° | 21 W/m² | - |
| 1778027792 | 28.33° C | 66% | 1006.5 hPa | 0 mm | 0.45 m/s, 81° | 27 W/m² | - |
| 1778027488 | 28.33° C | 65% | 1006.9 hPa | 0 mm | 0.45 m/s, 119° | 25 W/m² | - |
| 1778027184 | 28.33° C | 65% | 1006.9 hPa | 0 mm | 0.89 m/s, 79° | 25 W/m² | - |
| 1778026880 | 28.89° C | 64% | 1006.7 hPa | 0 mm | 0 m/s | 26 W/m² | - |
| 1778026576 | 28.89° C | 63% | 1006.9 hPa | 0 mm | 0.89 m/s, 111° | 34 W/m² | - |
| 1778026274 | 28.89° C | 62% | 1006.7 hPa | 0 mm | 0.45 m/s, 108° | 31 W/m² | - |
| 1778025971 | 29.44° C | 61% | 1006.9 hPa | 0 mm | 1.79 m/s, 103° | 38 W/m² | - |
| 1778025668 | 29.44° C | 60% | 1007.1 hPa | 0 mm | 2.24 m/s, 129° | 47 W/m² | - |
| 1778025366 | 30° C | 60% | 1006.9 hPa | 0 mm | 0.89 m/s, 49° | 82 W/m² | - |
| 1778025063 | 30° C | 60% | 1007 hPa | 0 mm | 1.34 m/s, 161° | 143 W/m² | - |
| 1778024760 | 30° C | 61% | 1006.6 hPa | 0 mm | 0.45 m/s, 72° | 94 W/m² | - |
| 1778024456 | 29.44° C | 61% | 1006.5 hPa | 0 mm | 2.24 m/s, 173° | 165 W/m² | - |
| 1778024154 | 29.44° C | 61% | 1006.6 hPa | 0 mm | 1.34 m/s, 106° | 105 W/m² | - |
| 1778023851 | 30° C | 61% | 1006.6 hPa | 0 mm | 1.34 m/s, 79° | 87 W/m² | - |
| 1778023549 | 30° C | 61% | 1006.7 hPa | 0 mm | 0.45 m/s, 77° | 105 W/m² | - |
| 1778023246 | 30° C | 60% | 1006.3 hPa | 0 mm | 1.34 m/s, 74° | 81 W/m² | - |
| 1778022943 | 30.56° C | 59% | 1006.6 hPa | 0 mm | 1.79 m/s, 164° | 78 W/m² | - |
| 1778022642 | 30.56° C | 59% | 1006.7 hPa | 0 mm | 1.79 m/s, 91° | 178 W/m² | - |
| 1778022339 | 30.56° C | 59% | 1006.7 hPa | 0 mm | 2.24 m/s, 154° | 187 W/m² | - |
* Rain latest hour (hover to see other rain measurements)
** Current wind speed in m/s (hover to see current wind gust speed)